createdAt,value
2022-09-12T00:00:51.237Z,95275.00
2022-09-12T00:03:17.847Z,95268.56
2022-09-12T00:05:46.392Z,95263.28
2022-09-12T00:08:14.244Z,95275.34
2022-09-12T00:10:42.937Z,95270.09
2022-09-12T00:13:11.176Z,95264.41
2022-09-12T00:15:42.315Z,95259.91
2022-09-12T00:18:12.402Z,95259.91
2022-09-12T00:20:47.054Z,95267.88
2022-09-12T00:23:15.049Z,95261.06
2022-09-12T00:25:46.793Z,95261.88
2022-09-12T00:28:15.745Z,95260.34
2022-09-12T00:30:43.862Z,95246.06
2022-09-12T00:33:11.484Z,95259.63
2022-09-12T00:35:49.744Z,95255.84
2022-09-12T00:38:17.407Z,95255.16
2022-09-12T00:40:44.727Z,95253.63
2022-09-12T00:43:31.835Z,95256.69
2022-09-12T00:46:02.426Z,95249.91
2022-09-12T00:48:34.908Z,95241.97
2022-09-12T00:51:02.194Z,95245.34
2022-09-12T00:53:29.186Z,95244.22
2022-09-12T00:55:57.672Z,95254.03
2022-09-12T00:58:39.985Z,95244.63
2022-09-12T01:01:06.774Z,95249.91
2022-09-12T01:03:33.819Z,95244.63
2022-09-12T01:06:16.169Z,95245.38
2022-09-12T01:08:44.559Z,95249.88
2022-09-12T01:11:13.264Z,95235.59
2022-09-12T01:13:40.282Z,95250.66
2022-09-12T01:16:08.316Z,95243.88
2022-09-12T01:18:55.659Z,95229.53
2022-09-12T01:21:48.637Z,95231.81
2022-09-12T01:24:48.955Z,95237.84
2022-09-12T01:27:44.623Z,95228.81
2022-09-12T01:30:32.511Z,95230.31
2022-09-12T01:33:20.449Z,95222.41
2022-09-12T01:36:14.086Z,95221.28
2022-09-12T01:38:50.351Z,95237.84
2022-09-12T01:41:31.851Z,95216.72
2022-09-12T01:44:02.489Z,95216.72
2022-09-12T01:46:44.511Z,95216.75
2022-09-12T01:49:25.387Z,95214.84
2022-09-12T01:52:15.905Z,95222.00
2022-09-12T01:54:49.380Z,95220.16
2022-09-12T01:57:32.435Z,95219.78
2022-09-12T02:00:04.252Z,95226.94
2022-09-12T02:02:36.018Z,95212.97
2022-09-12T02:05:16.362Z,95216.75
2022-09-12T02:07:46.975Z,95217.53
2022-09-12T02:10:18.051Z,95222.03
2022-09-12T02:12:53.426Z,95218.66
2022-09-12T02:15:24.298Z,95222.41
2022-09-12T02:17:54.059Z,95221.25
2022-09-12T02:20:49.601Z,95222.03
2022-09-12T02:23:25.086Z,95216.03
2022-09-12T02:25:57.828Z,95215.25
2022-09-12T02:28:36.224Z,95214.88
2022-09-12T02:31:08.747Z,95219.00
2022-09-12T02:33:50.551Z,95220.53
2022-09-12T02:36:50.046Z,95227.31
2022-09-12T02:39:21.235Z,95220.91
2022-09-12T02:41:51.881Z,95226.19
2022-09-12T02:44:19.119Z,95221.28
2022-09-12T02:46:51.085Z,95223.53
2022-09-12T02:49:17.791Z,95210.00
2022-09-12T02:51:46.614Z,95206.97
2022-09-12T02:54:16.398Z,95210.75
2022-09-12T02:56:45.115Z,95211.50
2022-09-12T02:59:16.973Z,95216.00
2022-09-12T03:01:59.919Z,95207.00
2022-09-12T03:05:11.063Z,95210.72
2022-09-12T03:07:51.919Z,95214.50
2022-09-12T03:10:21.074Z,95209.97
2022-09-12T03:13:03.618Z,95211.84
2022-09-12T03:15:59.521Z,95215.94
2022-09-12T03:18:50.559Z,95215.94
2022-09-12T03:21:27.866Z,95217.84
2022-09-12T03:24:05.264Z,95214.44
2022-09-12T03:26:53.481Z,95222.34
2022-09-12T03:29:21.798Z,95212.16
2022-09-12T03:31:54.458Z,95216.34
2022-09-12T03:34:22.644Z,95208.81
2022-09-12T03:36:49.523Z,95207.66
2022-09-12T03:39:17.002Z,95220.44
2022-09-12T03:41:43.582Z,95214.03
2022-09-12T03:44:10.259Z,95214.78
2022-09-12T03:46:36.826Z,95209.19
2022-09-12T03:49:03.626Z,95213.28
2022-09-12T03:51:30.271Z,95211.78
2022-09-12T03:53:56.842Z,95208.41
2022-09-12T03:56:23.434Z,95217.41
2022-09-12T03:58:49.940Z,95216.66
2022-09-12T04:01:19.085Z,95217.38
2022-09-12T04:03:50.745Z,95213.66
2022-09-12T04:06:19.815Z,95215.47
2022-09-12T04:08:54.794Z,95207.56
2022-09-12T04:11:22.482Z,95212.78
2022-09-12T04:13:49.225Z,95212.03
2022-09-12T04:16:17.517Z,95212.78
2022-09-12T04:18:44.361Z,95212.78
2022-09-12T04:21:14.747Z,95208.31
2022-09-12T04:23:41.393Z,95207.13
2022-09-12T04:26:08.226Z,95207.44
2022-09-12T04:28:36.139Z,95215.00
2022-09-12T04:31:09.048Z,95219.44
2022-09-12T04:33:36.340Z,95217.63
2022-09-12T04:36:04.875Z,95219.56
2022-09-12T04:38:31.708Z,95214.25
2022-09-12T04:40:58.191Z,95223.28
2022-09-12T04:43:24.771Z,95222.44
2022-09-12T04:45:52.037Z,95221.66
2022-09-12T04:48:19.066Z,95223.19
2022-09-12T04:50:45.602Z,95221.28
2022-09-12T04:53:12.224Z,95217.84
2022-09-12T04:55:38.742Z,95222.41
2022-09-12T04:58:05.267Z,95223.47
2022-09-12T05:00:31.844Z,95222.38
2022-09-12T05:02:58.397Z,95218.25
2022-09-12T05:05:25.026Z,95221.59
2022-09-12T05:07:51.611Z,95216.75
2022-09-12T05:10:18.248Z,95223.09
2022-09-12T05:12:44.835Z,95222.38
2022-09-12T05:15:11.690Z,95221.25
2022-09-12T05:17:38.205Z,95223.13
2022-09-12T05:20:05.184Z,95222.44
2022-09-12T05:22:31.686Z,95219.03
2022-09-12T05:24:58.181Z,95232.97
2022-09-12T05:27:24.809Z,95225.47
2022-09-12T05:29:51.441Z,95228.53
2022-09-12T05:32:18.012Z,95231.53
2022-09-12T05:34:44.591Z,95235.00
2022-09-12T05:37:11.296Z,95235.41
2022-09-12T05:39:37.821Z,95234.66
2022-09-12T05:42:04.686Z,95232.03
2022-09-12T05:44:31.178Z,95234.69
2022-09-12T05:46:57.890Z,95237.34
2022-09-12T05:49:24.543Z,95237.00
2022-09-12T05:51:51.653Z,95230.22
2022-09-12T05:54:20.450Z,95239.25
2022-09-12T05:56:47.405Z,95244.94
2022-09-12T05:59:17.207Z,95241.19
2022-09-12T06:01:44.657Z,95243.84
2022-09-12T06:04:12.403Z,95237.84
2022-09-12T06:06:47.379Z,95237.09
2022-09-12T06:09:15.928Z,95234.47
2022-09-12T06:11:42.699Z,95238.59
2022-09-12T06:14:11.570Z,95244.25
2022-09-12T06:16:39.096Z,95249.13
2022-09-12T06:19:15.240Z,95233.56
2022-09-12T06:21:42.178Z,95251.63
2022-09-12T06:24:08.830Z,95251.91
2022-09-12T06:26:35.694Z,95246.53
2022-09-12T06:29:02.994Z,95243.03
2022-09-12T06:31:33.162Z,95244.44
2022-09-12T06:34:02.015Z,95241.75
2022-09-12T06:36:31.858Z,95239.00
2022-09-12T06:39:03.811Z,95235.78
2022-09-12T06:41:31.359Z,95236.75
2022-09-12T06:43:59.158Z,95237.38
2022-09-12T06:46:26.729Z,95240.41
2022-09-12T06:48:53.862Z,95238.66
2022-09-12T06:51:20.542Z,95236.53
2022-09-12T06:53:49.049Z,95247.03
2022-09-12T06:56:19.253Z,95230.00
2022-09-12T06:58:47.228Z,95231.63
2022-09-12T07:01:18.212Z,95223.69
2022-09-12T07:03:51.815Z,95243.00
2022-09-12T07:06:20.424Z,95236.50
2022-09-12T07:08:47.823Z,95237.06
2022-09-12T07:11:20.335Z,95243.75
2022-09-12T07:13:51.025Z,95235.28
2022-09-12T07:16:19.948Z,95240.75
2022-09-12T07:18:55.060Z,95237.19
2022-09-12T07:21:21.994Z,95237.97
2022-09-12T07:23:49.247Z,95239.84
2022-09-12T07:26:16.482Z,95236.41
2022-09-12T07:28:43.176Z,95235.53
2022-09-12T07:31:11.834Z,95240.38
2022-09-12T07:33:39.332Z,95239.44
2022-09-12T07:36:08.788Z,95229.72
2022-09-12T07:38:35.402Z,95228.13
2022-09-12T07:41:02.051Z,95238.06
2022-09-12T07:43:28.619Z,95227.75
2022-09-12T07:45:56.733Z,95220.94
2022-09-12T07:48:23.381Z,95224.53
2022-09-12T07:51:00.600Z,95220.00
2022-09-12T07:53:32.870Z,95218.75
2022-09-12T07:55:59.811Z,95221.41
2022-09-12T07:58:26.866Z,95212.28
2022-09-12T08:00:53.684Z,95218.66
2022-09-12T08:03:21.089Z,95216.81
2022-09-12T08:05:47.682Z,95223.03
2022-09-12T08:08:14.194Z,95213.84
2022-09-12T08:10:40.793Z,95225.72
2022-09-12T08:13:08.761Z,95220.22
2022-09-12T08:15:36.682Z,95226.25
2022-09-12T08:18:03.265Z,95221.03
2022-09-12T08:20:30.422Z,95222.53
2022-09-12T08:22:56.976Z,95230.22
2022-09-12T08:25:23.554Z,95231.56
2022-09-12T08:27:50.335Z,95224.94
2022-09-12T08:30:16.880Z,95234.03
2022-09-12T08:32:43.374Z,95233.75
2022-09-12T08:35:09.957Z,95229.22
2022-09-12T08:37:36.457Z,95230.22
2022-09-12T08:40:06.844Z,95232.19
2022-09-12T08:42:52.119Z,95238.72
2022-09-12T08:45:28.044Z,95237.31
2022-09-12T08:47:56.533Z,95224.53
2022-09-12T08:50:23.218Z,95229.81
2022-09-12T08:52:53.198Z,95230.50
2022-09-12T08:55:40.384Z,95231.09
2022-09-12T08:58:28.435Z,95229.84
2022-09-12T09:01:31.394Z,95221.75
2022-09-12T09:04:28.929Z,95228.50
2022-09-12T09:07:01.586Z,95229.66
2022-09-12T09:09:42.936Z,95231.41
2022-09-12T09:12:40.208Z,95239.41
2022-09-12T09:15:30.854Z,95233.41
2022-09-12T09:18:13.245Z,95225.59
2022-09-12T09:20:43.596Z,95236.06
2022-09-12T09:23:31.036Z,95235.31
2022-09-12T09:26:08.771Z,95229.00
2022-09-12T09:28:54.237Z,95231.69
2022-09-12T09:31:26.405Z,95232.03
2022-09-12T09:33:57.498Z,95226.56
2022-09-12T09:36:57.923Z,95228.47
2022-09-12T09:39:42.887Z,95231.44
2022-09-12T09:42:13.243Z,95231.84
2022-09-12T09:44:40.170Z,95232.81
2022-09-12T09:47:10.587Z,95223.94
2022-09-12T09:49:37.520Z,95229.09
2022-09-12T09:52:07.181Z,95223.56
2022-09-12T09:54:47.539Z,95221.03
2022-09-12T09:57:42.077Z,95220.66
2022-09-12T10:00:30.605Z,95225.19
2022-09-12T10:03:29.904Z,95221.59
2022-09-12T10:06:25.448Z,95218.53
2022-09-12T10:08:52.162Z,95220.66
2022-09-12T10:11:22.707Z,95216.44
2022-09-12T10:13:58.127Z,95210.97
2022-09-12T10:16:27.898Z,95199.78
2022-09-12T10:18:59.548Z,95198.81
2022-09-12T10:21:49.081Z,95201.00
2022-09-12T10:24:36.689Z,95200.69
2022-09-12T10:27:12.271Z,95195.34
2022-09-12T10:29:49.407Z,95186.94
2022-09-12T10:32:29.977Z,95192.06
2022-09-12T10:35:09.017Z,95186.28
2022-09-12T10:37:39.775Z,95186.28
2022-09-12T10:40:20.654Z,95179.44
2022-09-12T10:42:58.829Z,95178.56
2022-09-12T10:45:26.791Z,95175.78
2022-09-12T10:47:55.794Z,95174.31
2022-09-12T10:50:26.841Z,95184.31
2022-09-12T10:53:40.467Z,95178.53
2022-09-12T10:56:09.252Z,95170.66
2022-09-12T10:58:51.007Z,95165.13
2022-09-12T11:01:32.653Z,95162.22
2022-09-12T11:04:04.881Z,95167.44
2022-09-12T11:06:48.668Z,95161.91
2022-09-12T11:09:31.655Z,95173.84
2022-09-12T11:12:19.872Z,95163.44
2022-09-12T11:14:57.882Z,95157.75
2022-09-12T11:17:36.963Z,95164.16
2022-09-12T11:20:32.341Z,95172.34
2022-09-12T11:23:31.225Z,95163.28
2022-09-12T11:26:25.277Z,95161.03
2022-09-12T11:29:09.300Z,95159.56
2022-09-12T11:31:44.491Z,95164.00
2022-09-12T11:34:15.591Z,95163.13
2022-09-12T11:37:17.901Z,95159.38
2022-09-12T11:39:52.274Z,95158.91
2022-09-12T11:42:28.494Z,95156.22
2022-09-12T11:45:08.083Z,95144.59
2022-09-12T11:47:36.467Z,95146.84
2022-09-12T11:50:15.474Z,95147.28
2022-09-12T11:52:41.996Z,95148.22
2022-09-12T11:55:24.604Z,95146.84
2022-09-12T11:57:57.294Z,95133.56
2022-09-12T12:00:26.697Z,95139.53
2022-09-12T12:03:09.575Z,95142.78
2022-09-12T12:05:49.628Z,95136.50
2022-09-12T12:08:16.402Z,95140.66
2022-09-12T12:10:57.610Z,95138.03
2022-09-12T12:13:32.624Z,95138.59
2022-09-12T12:16:12.916Z,95137.63
2022-09-12T12:18:40.755Z,95126.63
2022-09-12T12:21:31.760Z,95126.59
2022-09-12T12:24:07.275Z,95123.44
2022-09-12T12:26:39.756Z,95125.31
2022-09-12T12:29:18.303Z,95120.22
2022-09-12T12:31:59.879Z,95128.25
2022-09-12T12:34:29.406Z,95121.44
2022-09-12T12:36:56.419Z,95116.13
2022-09-12T12:39:31.923Z,95113.84
2022-09-12T12:41:59.999Z,95111.47
2022-09-12T12:44:59.228Z,95119.25
2022-09-12T12:47:28.947Z,95106.59
2022-09-12T12:50:02.692Z,95106.84
2022-09-12T12:52:32.649Z,95104.63
2022-09-12T12:55:02.724Z,95101.13
2022-09-12T12:57:46.119Z,95094.78
2022-09-12T13:00:24.988Z,95097.22
2022-09-12T13:02:57.952Z,95100.88
2022-09-12T13:05:26.822Z,95087.41
2022-09-12T13:08:16.673Z,95093.78
2022-09-12T13:10:52.079Z,95092.63
2022-09-12T13:13:37.351Z,95080.25
2022-09-12T13:16:04.473Z,95085.75
2022-09-12T13:18:49.190Z,95087.31
2022-09-12T13:21:20.784Z,95078.63
2022-09-12T13:24:15.313Z,95081.66
2022-09-12T13:29:17.794Z,95076.72
2022-09-12T13:31:47.612Z,95072.47
2022-09-12T13:34:24.468Z,95068.38
2022-09-12T13:36:53.840Z,95065.63
2022-09-12T13:39:46.274Z,95068.75
2022-09-12T13:42:35.370Z,95062.25
2022-09-12T13:45:13.047Z,95056.31
2022-09-12T13:47:43.456Z,95052.31
2022-09-12T13:50:32.371Z,95055.75
2022-09-12T13:53:02.678Z,95054.81
2022-09-12T13:55:41.738Z,95051.38
2022-09-12T13:58:17.535Z,95050.13
2022-09-12T14:00:45.039Z,95052.19
2022-09-12T14:03:48.007Z,95048.34
2022-09-12T14:06:16.602Z,95036.50
2022-09-12T14:08:44.079Z,95038.72
2022-09-12T14:11:12.584Z,95038.72
2022-09-12T14:13:39.436Z,95029.72
2022-09-12T14:16:09.886Z,95030.06
2022-09-12T14:18:38.729Z,95023.59
2022-09-12T14:21:12.217Z,95023.19
2022-09-12T14:23:45.247Z,95021.44
2022-09-12T14:26:13.612Z,95017.75
2022-09-12T14:28:48.024Z,95011.28
2022-09-12T14:31:15.749Z,95016.00
2022-09-12T14:33:56.471Z,95018.31
2022-09-12T14:36:55.143Z,95020.28
2022-09-12T14:39:39.902Z,95013.00
2022-09-12T14:42:13.116Z,95011.97
2022-09-12T14:44:40.881Z,95017.41
2022-09-12T14:47:20.023Z,95013.81
2022-09-12T14:49:48.560Z,95007.44
2022-09-12T14:52:32.368Z,95005.00
2022-09-12T14:55:00.653Z,95005.03
2022-09-12T14:57:42.342Z,95002.22
2022-09-12T15:00:11.964Z,95000.84
2022-09-12T15:02:40.510Z,94994.53
2022-09-12T15:05:06.978Z,94996.75
2022-09-12T15:07:34.973Z,94999.13
2022-09-12T15:10:10.875Z,94991.41
2022-09-12T15:12:37.378Z,94988.94
2022-09-12T15:15:18.819Z,94999.53
2022-09-12T15:17:45.506Z,94980.94
2022-09-12T15:20:13.486Z,94982.75
2022-09-12T15:22:41.828Z,94978.75
2022-09-12T15:25:10.697Z,94973.00
2022-09-12T15:27:40.841Z,94968.78
2022-09-12T15:30:10.261Z,94977.25
2022-09-12T15:32:37.302Z,94962.66
2022-09-12T15:35:04.220Z,94970.38
2022-09-12T15:37:31.105Z,94966.88
2022-09-12T15:39:57.685Z,94961.94
2022-09-12T15:42:29.289Z,94957.38
2022-09-12T15:44:58.450Z,94946.03
2022-09-12T15:47:28.951Z,94951.75
2022-09-12T15:49:55.454Z,94942.97
2022-09-12T15:52:21.971Z,94957.94
2022-09-12T15:54:48.538Z,94954.69
2022-09-12T15:57:15.215Z,94943.78
2022-09-12T15:59:41.705Z,94946.22
2022-09-12T16:02:09.980Z,94937.16
2022-09-12T16:04:36.533Z,94945.84
2022-09-12T16:07:03.123Z,94955.63
2022-09-12T16:09:29.818Z,94950.41
2022-09-12T16:11:56.332Z,94937.84
2022-09-12T16:14:23.015Z,94939.63
2022-09-12T16:16:54.178Z,94934.50
2022-09-12T16:19:20.801Z,94931.91
2022-09-12T16:21:47.782Z,94931.94
2022-09-12T16:24:14.277Z,94936.56
2022-09-12T16:26:40.834Z,94930.59
2022-09-12T16:29:07.460Z,94921.00
2022-09-12T16:31:34.073Z,94923.06
2022-09-12T16:34:00.622Z,94928.91
2022-09-12T16:36:27.129Z,94940.25
2022-09-12T16:38:54.196Z,94949.50
2022-09-12T16:41:25.048Z,94943.75
2022-09-12T16:43:52.083Z,94941.47
2022-09-12T16:46:21.344Z,94941.19
2022-09-12T16:48:52.418Z,94941.75
2022-09-12T16:51:25.980Z,94933.91
2022-09-12T16:53:54.126Z,94945.31
2022-09-12T16:56:21.126Z,94940.94
2022-09-12T16:58:47.943Z,94936.63
2022-09-12T17:01:16.656Z,94946.44
2022-09-12T17:03:44.051Z,94947.81
2022-09-12T17:06:16.544Z,94938.06
2022-09-12T17:08:45.766Z,94948.84
2022-09-12T17:11:15.355Z,94929.91
2022-09-12T17:14:03.834Z,94934.56
2022-09-12T17:16:32.925Z,94931.28
2022-09-12T17:18:59.426Z,94937.41
2022-09-12T17:21:26.395Z,94935.63
2022-09-12T17:23:52.939Z,94942.56
2022-09-12T17:26:19.578Z,94930.06
2022-09-12T17:28:46.165Z,94929.84
2022-09-12T17:31:15.113Z,94924.78
2022-09-12T17:33:42.132Z,94932.78
2022-09-12T17:36:13.300Z,94939.38
2022-09-12T17:38:39.931Z,94936.19
2022-09-12T17:41:08.517Z,94936.63
2022-09-12T17:43:37.890Z,94940.03
2022-09-12T17:46:05.330Z,94942.09
2022-09-12T17:48:32.510Z,94941.75
2022-09-12T17:50:59.381Z,94936.38
2022-09-12T17:53:25.944Z,94953.16
2022-09-12T17:55:54.312Z,94945.47
2022-09-12T17:58:21.037Z,94952.75
2022-09-12T18:01:06.359Z,94953.63
2022-09-12T18:03:35.281Z,94948.75
2022-09-12T18:06:02.291Z,94955.34
2022-09-12T18:08:28.889Z,94948.84
2022-09-12T18:11:04.577Z,94956.53
2022-09-12T18:13:35.019Z,94948.84
2022-09-12T18:16:07.242Z,94951.72
2022-09-12T18:18:35.157Z,94954.56
2022-09-12T18:21:04.149Z,94949.91
2022-09-12T18:23:32.010Z,94956.94
2022-09-12T18:26:00.208Z,94960.00
2022-09-12T18:28:27.004Z,94958.00
2022-09-12T18:30:53.881Z,94960.41
2022-09-12T18:33:23.907Z,94965.59
2022-09-12T18:35:50.899Z,94967.00
2022-09-12T18:38:17.580Z,94963.66
2022-09-12T18:40:44.152Z,94974.66
2022-09-12T18:43:10.790Z,94971.81
2022-09-12T18:45:37.388Z,94973.50
2022-09-12T18:48:06.146Z,94967.00
2022-09-12T18:50:33.364Z,94971.66
2022-09-12T18:53:00.139Z,94978.19
2022-09-12T18:55:26.920Z,94968.56
2022-09-12T18:57:55.629Z,94970.25
2022-09-12T19:00:22.304Z,94974.25
2022-09-12T19:02:49.152Z,94977.84
2022-09-12T19:05:15.994Z,94983.22
2022-09-12T19:07:42.602Z,94981.75
2022-09-12T19:10:09.183Z,94981.06
2022-09-12T19:12:35.807Z,94981.53
2022-09-12T19:15:02.754Z,94991.22
2022-09-12T19:17:29.570Z,94986.06
2022-09-12T19:19:56.156Z,94982.25
2022-09-12T19:22:22.669Z,94985.59
2022-09-12T19:24:49.240Z,94980.63
2022-09-12T19:27:16.185Z,94981.28
2022-09-12T19:29:42.733Z,94983.63
2022-09-12T19:32:09.331Z,94991.09
2022-09-12T19:34:35.910Z,94997.25
2022-09-12T19:37:02.502Z,94984.94
2022-09-12T19:39:29.043Z,94979.03
2022-09-12T19:41:55.569Z,94985.09
2022-09-12T19:44:23.694Z,94985.00
2022-09-12T19:46:51.107Z,94978.53
2022-09-12T19:49:17.625Z,94981.09
2022-09-12T19:51:44.470Z,94987.41
2022-09-12T19:54:11.476Z,94984.25
2022-09-12T19:56:38.263Z,94991.97
2022-09-12T19:59:04.999Z,94984.16
2022-09-12T20:01:32.525Z,94987.47
2022-09-12T20:03:59.381Z,94990.53
2022-09-12T20:06:27.419Z,94991.53
2022-09-12T20:08:54.875Z,94991.63
2022-09-12T20:11:23.475Z,95004.63
2022-09-12T20:13:50.622Z,95001.47
2022-09-12T20:16:22.136Z,94995.03
2022-09-12T20:18:53.728Z,95005.59
2022-09-12T20:21:25.293Z,94996.28
2022-09-12T20:23:52.063Z,95000.34
2022-09-12T20:26:20.333Z,94996.03
2022-09-12T20:28:47.198Z,94992.28
2022-09-12T20:31:16.358Z,94993.09
2022-09-12T20:33:43.720Z,94995.94
2022-09-12T20:36:13.890Z,94993.56
2022-09-12T20:38:41.927Z,95001.69
2022-09-12T20:41:11.005Z,94996.38
2022-09-12T20:43:40.918Z,94997.13
2022-09-12T20:46:09.976Z,94993.56
2022-09-12T20:48:37.146Z,94996.72
2022-09-12T20:51:03.922Z,94994.88
2022-09-12T20:53:34.711Z,94984.13
2022-09-12T20:56:02.077Z,94983.13
2022-09-12T20:58:28.600Z,94995.56
2022-09-12T21:00:55.270Z,94999.91
2022-09-12T21:03:21.902Z,94991.69
2022-09-12T21:05:48.394Z,94997.13
2022-09-12T21:08:15.268Z,94995.44
2022-09-12T21:10:43.034Z,94994.44
2022-09-12T21:13:10.626Z,94989.03
2022-09-12T21:15:41.083Z,94992.03
2022-09-12T21:18:08.129Z,94989.66
2022-09-12T21:20:34.751Z,94986.22
2022-09-12T21:23:01.440Z,94982.66
2022-09-12T21:25:29.153Z,94984.97
2022-09-12T21:27:55.842Z,94984.75
2022-09-12T21:30:22.902Z,94984.91
2022-09-12T21:32:49.513Z,94985.16
2022-09-12T21:35:16.346Z,94984.50
2022-09-12T21:37:43.035Z,94977.34
2022-09-12T21:40:10.054Z,94968.50
2022-09-12T21:42:36.633Z,94971.94
2022-09-12T21:45:03.365Z,94968.56
2022-09-12T21:47:29.886Z,94977.75
2022-09-12T21:49:57.616Z,94975.44
2022-09-12T21:52:24.182Z,94976.19
2022-09-12T21:54:50.703Z,94973.59
2022-09-12T21:57:17.259Z,94984.56
2022-09-12T21:59:44.315Z,94981.44
2022-09-12T22:02:12.447Z,94979.59
2022-09-12T22:04:39.395Z,94980.25
2022-09-12T22:07:06.064Z,94977.25
2022-09-12T22:09:34.382Z,94988.09
2022-09-12T22:12:02.513Z,94980.25
2022-09-12T22:14:29.506Z,94978.13
2022-09-12T22:16:56.842Z,94978.13
2022-09-12T22:19:23.578Z,94967.59
2022-09-12T22:22:08.827Z,94970.06
2022-09-12T22:24:35.319Z,94969.44
2022-09-12T22:27:06.505Z,94964.13
2022-09-12T22:29:33.932Z,94977.03
2022-09-12T22:32:00.883Z,94971.72
2022-09-12T22:34:28.815Z,94968.66
2022-09-12T22:36:55.782Z,94974.31
2022-09-12T22:39:23.078Z,94977.38
2022-09-12T22:41:49.855Z,94979.00
2022-09-12T22:44:17.839Z,94978.72
2022-09-12T22:46:44.570Z,94975.06
2022-09-12T22:49:11.125Z,94976.72
2022-09-12T22:51:37.671Z,94971.13
2022-09-12T22:54:05.731Z,94969.22
2022-09-12T22:56:32.368Z,94965.72
2022-09-12T22:58:59.047Z,94962.31
2022-09-12T23:01:25.827Z,94939.97
2022-09-12T23:03:52.393Z,94959.88
2022-09-12T23:06:19.051Z,94951.50
2022-09-12T23:08:45.810Z,94949.97
2022-09-12T23:11:16.950Z,94950.09
2022-09-12T23:13:49.331Z,94953.16
2022-09-12T23:16:21.769Z,94943.28
2022-09-12T23:18:49.061Z,94941.06
2022-09-12T23:21:18.094Z,94941.78
2022-09-12T23:23:44.908Z,94937.31
2022-09-12T23:26:22.996Z,94942.72
2022-09-12T23:28:53.946Z,94941.94
2022-09-12T23:31:22.785Z,94942.72
2022-09-12T23:33:52.254Z,94947.91
2022-09-12T23:36:18.902Z,94950.16
2022-09-12T23:38:46.636Z,94946.78
2022-09-12T23:41:15.229Z,94942.53
2022-09-12T23:43:43.134Z,94939.34
2022-09-12T23:46:09.782Z,94933.00
2022-09-12T23:48:36.414Z,94937.44
2022-09-12T23:51:02.926Z,94926.03
2022-09-12T23:53:29.688Z,94920.97
2022-09-12T23:55:56.229Z,94933.47
2022-09-12T23:58:22.931Z,94935.72
